createdAt,value
2017-08-03T00:01:17.360Z,21.47
2017-08-03T00:03:44.840Z,21.53
2017-08-03T00:06:12.333Z,21.53
2017-08-03T00:08:39.777Z,21.56
2017-08-03T00:11:07.217Z,21.50
2017-08-03T00:13:38.542Z,21.54
2017-08-03T00:16:05.985Z,21.37
2017-08-03T00:18:33.464Z,21.33
2017-08-03T00:21:00.941Z,21.18
2017-08-03T00:23:28.583Z,21.06
2017-08-03T00:25:56.035Z,21.06
2017-08-03T00:28:23.490Z,21.03
2017-08-03T00:30:50.958Z,21.28
2017-08-03T00:33:18.406Z,21.19
2017-08-03T00:35:45.869Z,21.15
2017-08-03T00:38:13.633Z,21.04
2017-08-03T00:40:41.082Z,20.96
2017-08-03T00:43:08.526Z,20.97
2017-08-03T00:45:36.000Z,20.89
2017-08-03T00:48:03.465Z,20.81
2017-08-03T00:50:30.914Z,20.73
2017-08-03T00:52:58.591Z,20.64
2017-08-03T00:55:26.034Z,20.71
2017-08-03T00:57:53.469Z,20.78
2017-08-03T01:00:20.943Z,20.66
2017-08-03T01:02:48.392Z,20.60
2017-08-03T01:05:15.896Z,20.60
2017-08-03T01:07:43.341Z,20.56
2017-08-03T01:10:10.785Z,20.34
2017-08-03T01:12:38.252Z,20.63
2017-08-03T01:15:05.697Z,20.69
2017-08-03T01:17:33.178Z,20.58
2017-08-03T01:20:00.643Z,20.47
2017-08-03T01:22:28.091Z,20.42
2017-08-03T01:24:55.557Z,20.38
2017-08-03T01:27:23.006Z,20.66
2017-08-03T01:29:50.476Z,20.74
2017-08-03T01:32:17.916Z,20.73
2017-08-03T01:34:45.369Z,20.64
2017-08-03T01:37:12.829Z,20.54
2017-08-03T01:39:40.288Z,20.40
2017-08-03T01:42:07.763Z,20.33
2017-08-03T01:44:35.212Z,20.21
2017-08-03T01:47:11.380Z,20.24
2017-08-03T01:49:38.934Z,20.30
2017-08-03T01:52:06.387Z,20.33
2017-08-03T01:54:33.833Z,20.16
2017-08-03T01:57:01.305Z,20.10
2017-08-03T01:59:28.773Z,20.00
2017-08-03T02:01:56.257Z,19.99
2017-08-03T02:04:23.705Z,20.07
2017-08-03T02:06:51.153Z,20.03
2017-08-03T02:09:18.625Z,19.94
2017-08-03T02:11:46.103Z,19.83
2017-08-03T02:14:13.552Z,19.72
2017-08-03T02:16:41.013Z,19.80
2017-08-03T02:19:08.461Z,19.76
2017-08-03T02:21:36.167Z,19.68
2017-08-03T02:24:03.608Z,19.59
2017-08-03T02:26:31.069Z,19.60
2017-08-03T02:28:58.646Z,19.77
2017-08-03T02:31:26.097Z,19.66
2017-08-03T02:33:53.540Z,19.56
2017-08-03T02:36:21.017Z,19.52
2017-08-03T02:38:48.486Z,19.57
2017-08-03T02:41:15.926Z,19.46
2017-08-03T02:43:43.396Z,19.50
2017-08-03T02:46:10.842Z,19.65
2017-08-03T02:48:38.328Z,19.43
2017-08-03T02:51:05.769Z,19.57
2017-08-03T02:53:33.209Z,19.49
2017-08-03T02:56:00.680Z,19.43
2017-08-03T02:58:28.121Z,19.43
2017-08-03T03:00:55.837Z,19.49
2017-08-03T03:03:23.292Z,19.46
2017-08-03T03:05:50.740Z,19.41
2017-08-03T03:08:18.205Z,19.44
2017-08-03T03:10:45.649Z,19.49
2017-08-03T03:13:13.142Z,21.91
2017-08-03T03:15:40.593Z,22.69
2017-08-03T03:18:08.037Z,22.20
2017-08-03T03:20:35.496Z,21.79
2017-08-03T03:23:02.949Z,21.32
2017-08-03T03:25:30.412Z,21.19
2017-08-03T03:27:57.854Z,20.94
2017-08-03T03:30:25.322Z,20.75
2017-08-03T03:32:52.765Z,20.73
2017-08-03T03:35:20.572Z,21.79
2017-08-03T03:37:48.017Z,22.56
2017-08-03T03:40:16.171Z,22.49
2017-08-03T03:42:43.640Z,22.56
2017-08-03T03:45:11.104Z,21.34
2017-08-03T03:47:38.554Z,20.31
2017-08-03T03:50:06.029Z,19.88
2017-08-03T03:52:33.477Z,19.61
2017-08-03T03:55:00.933Z,19.98
2017-08-03T03:57:28.638Z,19.87
2017-08-03T03:59:56.080Z,19.78
2017-08-03T04:02:23.529Z,19.81
2017-08-03T04:04:51.007Z,19.72
2017-08-03T04:07:18.464Z,19.72
2017-08-03T04:09:45.918Z,19.82
2017-08-03T04:12:14.597Z,19.73
2017-08-03T04:14:42.055Z,19.67
2017-08-03T04:17:09.501Z,19.82
2017-08-03T04:19:36.973Z,20.08
2017-08-03T04:22:04.422Z,19.97
2017-08-03T04:24:32.248Z,19.85
2017-08-03T04:26:59.682Z,20.07
2017-08-03T04:29:27.144Z,20.15
2017-08-03T04:31:54.606Z,19.98
2017-08-03T04:34:22.056Z,19.97
2017-08-03T04:36:49.530Z,19.97
2017-08-03T04:39:16.974Z,20.10
2017-08-03T04:41:44.413Z,20.10
2017-08-03T04:44:11.878Z,19.95
2017-08-03T04:46:39.330Z,20.07
2017-08-03T04:49:06.896Z,20.05
2017-08-03T04:51:34.346Z,20.17
2017-08-03T04:54:01.810Z,20.49
2017-08-03T04:56:29.288Z,20.42
2017-08-03T04:58:56.738Z,20.46
2017-08-03T05:01:24.209Z,20.49
2017-08-03T05:03:51.650Z,20.63
2017-08-03T05:06:19.122Z,20.49
2017-08-03T05:08:46.819Z,20.64
2017-08-03T05:11:14.271Z,20.67
2017-08-03T05:13:41.733Z,20.93
2017-08-03T05:16:09.461Z,20.91
2017-08-03T05:18:36.916Z,21.02
2017-08-03T05:21:04.376Z,21.14
2017-08-03T05:23:31.866Z,21.07
2017-08-03T05:25:59.312Z,21.05
2017-08-03T05:28:26.760Z,21.15
2017-08-03T05:30:54.247Z,21.34
2017-08-03T05:33:21.693Z,21.56
2017-08-03T05:35:49.144Z,21.78
2017-08-03T05:38:16.633Z,21.92
2017-08-03T05:40:44.120Z,21.98
2017-08-03T05:43:11.577Z,21.97
2017-08-03T05:45:39.022Z,22.02
2017-08-03T05:48:06.521Z,22.08
2017-08-03T05:50:33.979Z,22.24
2017-08-03T05:53:01.432Z,22.20
2017-08-03T05:55:28.928Z,22.33
2017-08-03T05:57:56.381Z,22.34
2017-08-03T06:00:23.836Z,22.43
2017-08-03T06:02:51.334Z,22.46
2017-08-03T06:05:18.788Z,22.47
2017-08-03T06:07:46.241Z,22.49
2017-08-03T06:10:13.746Z,22.72
2017-08-03T06:12:41.196Z,22.90
2017-08-03T06:15:08.653Z,22.92
2017-08-03T06:17:36.155Z,23.10
2017-08-03T06:20:03.616Z,23.22
2017-08-03T06:22:31.073Z,23.08
2017-08-03T06:24:58.564Z,23.38
2017-08-03T06:27:26.006Z,23.39
2017-08-03T06:29:53.471Z,23.58
2017-08-03T06:32:20.973Z,23.68
2017-08-03T06:34:48.453Z,23.83
2017-08-03T06:37:15.896Z,23.74
2017-08-03T06:39:43.385Z,23.87
2017-08-03T06:42:10.838Z,23.90
2017-08-03T06:44:38.289Z,24.03
2017-08-03T06:47:05.777Z,24.27
2017-08-03T06:49:33.240Z,24.37
2017-08-03T06:52:00.710Z,24.54
2017-08-03T06:54:28.193Z,24.31
2017-08-03T06:56:55.641Z,24.66
2017-08-03T06:59:23.088Z,24.71
2017-08-03T07:01:50.565Z,24.74
2017-08-03T07:04:18.008Z,25.01
2017-08-03T07:06:45.459Z,25.13
2017-08-03T07:09:12.946Z,25.05
2017-08-03T07:11:40.393Z,25.20
2017-08-03T07:14:07.841Z,25.29
2017-08-03T07:16:35.311Z,25.45
2017-08-03T07:19:02.757Z,25.47
2017-08-03T07:21:30.196Z,25.36
2017-08-03T07:23:57.674Z,25.72
2017-08-03T07:26:25.164Z,25.90
2017-08-03T07:28:52.652Z,26.10
2017-08-03T07:31:20.097Z,26.26
2017-08-03T07:33:47.546Z,26.37
2017-08-03T07:36:15.030Z,26.59
2017-08-03T07:38:42.480Z,26.60
2017-08-03T07:41:09.925Z,26.93
2017-08-03T07:43:37.408Z,26.95
2017-08-03T07:46:04.859Z,26.88
2017-08-03T07:48:32.308Z,27.22
2017-08-03T07:50:59.786Z,26.97
2017-08-03T07:53:27.229Z,27.40
2017-08-03T07:55:54.709Z,27.61
2017-08-03T07:58:22.176Z,27.83
2017-08-03T08:00:49.629Z,27.46
2017-08-03T08:03:17.096Z,27.30
2017-08-03T08:05:44.585Z,27.33
2017-08-03T08:08:12.036Z,27.58
2017-08-03T08:10:39.516Z,27.85
2017-08-03T08:13:06.978Z,28.12
2017-08-03T08:15:34.426Z,28.17
2017-08-03T08:18:01.908Z,28.50
2017-08-03T08:20:29.357Z,28.43
2017-08-03T08:22:56.795Z,28.41
2017-08-03T08:25:24.278Z,28.61
2017-08-03T08:27:51.718Z,28.61
2017-08-03T08:30:19.198Z,29.02
2017-08-03T08:32:46.652Z,28.90
2017-08-03T08:35:14.669Z,28.79
2017-08-03T08:37:42.114Z,28.89
2017-08-03T08:40:09.567Z,28.75
2017-08-03T08:42:37.047Z,28.77
2017-08-03T08:45:04.494Z,28.89
2017-08-03T08:47:31.964Z,28.90
2017-08-03T08:49:59.414Z,28.75
2017-08-03T08:52:26.855Z,29.17
2017-08-03T08:54:54.339Z,29.43
2017-08-03T08:57:21.781Z,29.45
2017-08-03T08:59:49.228Z,29.53
2017-08-03T09:02:16.718Z,29.63
2017-08-03T09:04:44.157Z,29.77
2017-08-03T09:07:11.637Z,29.21
2017-08-03T09:09:39.117Z,29.43
2017-08-03T09:12:06.554Z,29.88
2017-08-03T09:14:34.000Z,29.77
2017-08-03T09:17:01.482Z,29.96
2017-08-03T09:19:28.926Z,29.74
2017-08-03T09:21:56.382Z,30.04
2017-08-03T09:24:23.868Z,30.11
2017-08-03T09:26:51.318Z,30.26
2017-08-03T09:29:18.790Z,30.18
2017-08-03T09:31:46.265Z,30.63
2017-08-03T09:34:13.726Z,30.49
2017-08-03T09:36:41.210Z,30.35
2017-08-03T09:39:08.689Z,30.81
2017-08-03T09:41:36.149Z,30.86
2017-08-03T09:44:03.618Z,31.06
2017-08-03T09:46:31.073Z,30.81
2017-08-03T09:48:58.516Z,31.10
2017-08-03T09:51:26.014Z,31.10
2017-08-03T09:53:53.460Z,31.31
2017-08-03T09:56:20.915Z,31.73
2017-08-03T09:58:48.398Z,31.89
2017-08-03T10:01:15.853Z,32.05
2017-08-03T10:03:43.322Z,32.31
2017-08-03T10:06:10.758Z,31.92
2017-08-03T10:08:38.232Z,32.15
2017-08-03T10:11:05.682Z,32.50
2017-08-03T10:13:33.129Z,32.39
2017-08-03T10:16:00.613Z,32.37
2017-08-03T10:18:28.054Z,32.57
2017-08-03T10:20:55.493Z,32.65
2017-08-03T10:23:22.993Z,32.54
2017-08-03T10:25:50.437Z,32.69
2017-08-03T10:28:17.923Z,32.61
2017-08-03T10:30:45.369Z,32.82
2017-08-03T10:33:12.812Z,32.75
2017-08-03T10:35:40.283Z,32.83
2017-08-03T10:38:07.723Z,32.79
2017-08-03T10:40:35.201Z,33.35
2017-08-03T10:43:02.653Z,33.49
2017-08-03T10:45:30.128Z,32.80
2017-08-03T10:47:57.617Z,33.10
2017-08-03T10:50:25.059Z,33.10
2017-08-03T10:52:52.502Z,33.77
2017-08-03T10:55:19.972Z,33.69
2017-08-03T10:57:47.461Z,33.75
2017-08-03T11:00:14.896Z,33.86
2017-08-03T11:02:42.342Z,34.00
2017-08-03T11:05:09.822Z,34.56
2017-08-03T11:07:37.294Z,33.51
2017-08-03T11:10:04.737Z,34.26
2017-08-03T11:12:32.209Z,34.42
2017-08-03T11:14:59.692Z,33.89
2017-08-03T11:17:27.136Z,34.36
2017-08-03T11:19:54.575Z,34.39
2017-08-03T11:22:22.049Z,35.08
2017-08-03T11:24:49.493Z,34.71
2017-08-03T11:27:16.930Z,35.02
2017-08-03T11:29:44.401Z,35.14
2017-08-03T11:32:11.845Z,35.57
2017-08-03T11:34:39.345Z,35.66
2017-08-03T11:37:06.797Z,35.12
2017-08-03T11:39:34.237Z,36.28
2017-08-03T11:42:01.716Z,35.60
2017-08-03T11:44:29.161Z,36.83
2017-08-03T11:46:56.617Z,36.94
2017-08-03T11:49:24.107Z,37.03
2017-08-03T11:51:51.557Z,37.30
2017-08-03T11:54:18.989Z,37.63
2017-08-03T11:56:46.465Z,37.81
2017-08-03T11:59:13.941Z,36.99
2017-08-03T12:01:41.382Z,37.71
2017-08-03T12:04:08.853Z,37.99
2017-08-03T12:06:36.298Z,37.94
2017-08-03T12:09:03.771Z,37.17
2017-08-03T12:11:31.213Z,36.99
2017-08-03T12:13:58.665Z,35.86
2017-08-03T12:16:26.153Z,36.82
2017-08-03T12:18:53.593Z,38.44
2017-08-03T12:21:21.368Z,38.33
2017-08-03T12:23:48.865Z,38.26
2017-08-03T12:26:16.304Z,37.90
2017-08-03T12:28:43.743Z,37.48
2017-08-03T12:31:11.213Z,38.49
2017-08-03T12:33:38.654Z,38.07
2017-08-03T12:36:06.129Z,38.58
2017-08-03T12:38:33.573Z,38.65
2017-08-03T12:41:01.054Z,37.32
2017-08-03T12:43:28.506Z,37.96
2017-08-03T12:45:55.951Z,37.65
2017-08-03T12:48:23.433Z,36.97
2017-08-03T12:50:50.908Z,36.67
2017-08-03T12:53:18.356Z,37.92
2017-08-03T12:55:45.833Z,37.27
2017-08-03T12:58:13.282Z,36.23
2017-08-03T13:00:40.725Z,35.99
2017-08-03T13:03:08.230Z,36.64
2017-08-03T13:05:35.677Z,37.74
2017-08-03T13:08:03.124Z,37.92
2017-08-03T13:10:30.598Z,37.99
2017-08-03T13:12:58.042Z,37.64
2017-08-03T13:15:25.486Z,38.79
2017-08-03T13:17:52.985Z,37.26
2017-08-03T13:20:20.428Z,36.70
2017-08-03T13:22:47.885Z,35.36
2017-08-03T13:25:15.369Z,34.99
2017-08-03T13:27:42.817Z,34.76
2017-08-03T13:30:10.260Z,35.22
2017-08-03T13:32:37.732Z,35.01
2017-08-03T13:35:05.181Z,34.30
2017-08-03T13:37:32.663Z,34.50
2017-08-03T13:40:00.104Z,33.93
2017-08-03T13:42:27.554Z,33.38
2017-08-03T13:44:55.020Z,33.36
2017-08-03T13:47:22.457Z,33.60
2017-08-03T13:49:49.944Z,33.30
2017-08-03T13:52:17.381Z,33.42
2017-08-03T13:54:44.830Z,33.71
2017-08-03T13:57:12.322Z,33.51
2017-08-03T13:59:39.975Z,33.24
2017-08-03T14:02:07.424Z,33.42
2017-08-03T14:04:34.910Z,33.94
2017-08-03T14:07:02.402Z,33.65
2017-08-03T14:09:29.849Z,34.11
2017-08-03T14:11:57.289Z,33.66
2017-08-03T14:14:24.771Z,35.49
2017-08-03T14:16:52.276Z,36.60
2017-08-03T14:19:19.716Z,36.71
2017-08-03T14:21:47.166Z,36.93
2017-08-03T14:24:14.641Z,35.38
2017-08-03T14:26:42.086Z,35.81
2017-08-03T14:29:09.552Z,36.33
2017-08-03T14:31:37.032Z,35.63
2017-08-03T14:34:04.485Z,34.70
2017-08-03T14:36:31.929Z,34.88
2017-08-03T14:38:59.416Z,33.93
2017-08-03T14:41:26.865Z,34.58
2017-08-03T14:43:54.354Z,34.59
2017-08-03T14:46:21.828Z,34.07
2017-08-03T14:48:49.268Z,34.20
2017-08-03T14:51:16.744Z,34.12
2017-08-03T14:53:44.217Z,33.76
2017-08-03T14:56:11.664Z,33.86
2017-08-03T14:58:39.141Z,32.55
2017-08-03T15:01:06.588Z,32.97
2017-08-03T15:03:34.033Z,33.24
2017-08-03T15:06:01.506Z,33.39
2017-08-03T15:08:28.958Z,33.76
2017-08-03T15:10:56.439Z,33.77
2017-08-03T15:13:23.894Z,32.91
2017-08-03T15:15:51.341Z,33.57
2017-08-03T15:18:18.823Z,33.94
2017-08-03T15:20:46.269Z,33.82
2017-08-03T15:23:13.738Z,33.56
2017-08-03T15:25:41.214Z,33.27
2017-08-03T15:28:08.732Z,33.22
2017-08-03T15:30:36.183Z,33.25
2017-08-03T15:33:03.663Z,33.03
2017-08-03T15:35:31.109Z,33.12
2017-08-03T15:37:58.593Z,33.21
2017-08-03T15:40:26.056Z,33.04
2017-08-03T15:42:53.502Z,33.28
2017-08-03T15:45:20.984Z,33.17
2017-08-03T15:47:48.429Z,33.53
2017-08-03T15:50:15.918Z,33.87
2017-08-03T15:52:43.405Z,34.53
2017-08-03T15:55:10.855Z,35.27
2017-08-03T16:00:15.093Z,36.12
2017-08-03T16:02:42.542Z,35.97
2017-08-03T16:05:09.993Z,35.58
2017-08-03T16:07:37.474Z,35.11
2017-08-03T16:10:04.915Z,34.48
2017-08-03T16:12:32.412Z,34.38
2017-08-03T16:14:59.857Z,34.06
2017-08-03T16:17:27.302Z,33.95
2017-08-03T16:19:54.797Z,33.90
2017-08-03T16:22:22.240Z,33.90
2017-08-03T16:24:49.692Z,33.60
2017-08-03T16:27:17.183Z,33.51
2017-08-03T16:29:44.638Z,33.49
2017-08-03T16:32:12.116Z,33.35
2017-08-03T16:34:39.592Z,33.43
2017-08-03T16:37:07.037Z,33.55
2017-08-03T16:39:34.522Z,33.47
2017-08-03T16:42:01.989Z,33.48
2017-08-03T16:44:29.457Z,33.54
2017-08-03T16:46:56.933Z,33.27
2017-08-03T16:49:24.384Z,33.29
2017-08-03T16:51:51.870Z,33.22
2017-08-03T16:54:19.318Z,32.88
2017-08-03T16:56:46.809Z,32.69
2017-08-03T16:59:14.261Z,32.39
2017-08-03T17:01:41.720Z,32.43
2017-08-03T17:04:09.222Z,32.29
2017-08-03T17:06:36.665Z,32.27
2017-08-03T17:09:04.109Z,32.12
2017-08-03T17:11:31.589Z,32.26
2017-08-03T17:13:59.029Z,32.48
2017-08-03T17:16:26.505Z,32.70
2017-08-03T17:18:53.948Z,33.79
2017-08-03T17:21:21.394Z,32.77
2017-08-03T17:23:48.873Z,33.37
2017-08-03T17:26:16.369Z,34.81
2017-08-03T17:28:43.804Z,35.20
2017-08-03T17:31:11.248Z,35.66
2017-08-03T17:33:38.730Z,35.71
2017-08-03T17:36:06.178Z,36.07
2017-08-03T17:38:33.620Z,35.93
2017-08-03T17:41:01.092Z,36.03
2017-08-03T17:43:28.544Z,35.42
2017-08-03T17:45:56.021Z,34.93
2017-08-03T17:48:23.495Z,34.70
2017-08-03T17:50:51.169Z,33.94
2017-08-03T17:53:18.642Z,34.02
2017-08-03T17:55:46.212Z,33.75
2017-08-03T17:58:13.660Z,33.34
2017-08-03T18:00:41.117Z,32.70
2017-08-03T18:03:08.586Z,32.04
2017-08-03T18:05:36.029Z,31.73
2017-08-03T18:08:03.521Z,31.54
2017-08-03T18:10:30.972Z,31.34
2017-08-03T18:12:58.419Z,31.23
2017-08-03T18:15:25.901Z,31.24
2017-08-03T18:17:53.388Z,31.07
2017-08-03T18:20:20.866Z,30.75
2017-08-03T18:22:48.309Z,30.63
2017-08-03T18:25:15.766Z,30.46
2017-08-03T18:27:43.237Z,30.22
2017-08-03T18:30:10.682Z,30.17
2017-08-03T18:32:38.506Z,30.01
2017-08-03T18:35:05.956Z,29.95
2017-08-03T18:37:33.405Z,29.77
2017-08-03T18:40:00.870Z,29.57
2017-08-03T18:42:28.350Z,29.37
2017-08-03T18:44:55.797Z,29.38
2017-08-03T18:47:23.249Z,29.31
2017-08-03T18:49:50.915Z,28.99
2017-08-03T18:52:18.357Z,28.87
2017-08-03T18:54:46.087Z,28.74
2017-08-03T18:57:13.713Z,28.68
2017-08-03T18:59:41.152Z,28.57
2017-08-03T19:02:08.590Z,28.52
2017-08-03T19:04:36.074Z,28.34
2017-08-03T19:07:03.523Z,28.22
2017-08-03T19:09:30.997Z,28.07
2017-08-03T19:11:58.485Z,27.88
2017-08-03T19:14:25.948Z,27.75
2017-08-03T19:16:53.436Z,27.58
2017-08-03T19:19:20.885Z,27.50
2017-08-03T19:21:48.389Z,27.34
2017-08-03T19:24:17.082Z,27.27
2017-08-03T19:26:44.590Z,27.24
2017-08-03T19:29:12.021Z,27.22
2017-08-03T19:31:39.484Z,27.14
2017-08-03T19:34:06.957Z,27.15
2017-08-03T19:36:34.416Z,27.15
2017-08-03T19:39:02.109Z,27.09
2017-08-03T19:41:29.587Z,27.07
2017-08-03T19:43:57.028Z,27.02
2017-08-03T19:46:24.503Z,26.97
2017-08-03T19:48:51.968Z,26.93
2017-08-03T19:51:19.437Z,26.81
2017-08-03T19:53:46.874Z,26.77
2017-08-03T19:56:14.349Z,26.71
2017-08-03T19:58:41.817Z,26.70
2017-08-03T20:01:09.274Z,26.62
2017-08-03T20:03:36.752Z,26.45
2017-08-03T20:06:04.513Z,26.44
2017-08-03T20:08:38.797Z,26.26
2017-08-03T20:11:24.058Z,26.20
2017-08-03T20:13:51.497Z,26.24
2017-08-03T20:16:18.972Z,26.19
2017-08-03T20:18:46.441Z,26.15
2017-08-03T20:21:13.896Z,26.02
2017-08-03T20:23:41.396Z,26.15
2017-08-03T20:26:08.857Z,26.09
2017-08-03T20:28:36.326Z,26.14
2017-08-03T20:31:03.801Z,26.01
2017-08-03T20:33:31.249Z,25.78
2017-08-03T20:35:58.693Z,25.78
2017-08-03T20:38:26.157Z,25.73
2017-08-03T20:40:53.608Z,25.93
2017-08-03T20:43:21.085Z,25.64
2017-08-03T20:45:48.538Z,25.61
2017-08-03T20:48:16.872Z,25.49
2017-08-03T20:50:44.312Z,25.53
2017-08-03T20:53:11.776Z,25.47
2017-08-03T20:55:39.237Z,25.29
2017-08-03T20:58:06.711Z,25.33
2017-08-03T21:00:34.164Z,25.34
2017-08-03T21:03:01.631Z,25.37
2017-08-03T21:05:29.124Z,25.45
2017-08-03T21:07:56.565Z,25.54
2017-08-03T21:10:24.016Z,25.49
2017-08-03T21:12:51.486Z,25.35
2017-08-03T21:15:18.958Z,25.32
2017-08-03T21:17:46.428Z,25.23
2017-08-03T21:20:13.873Z,25.13
2017-08-03T21:22:41.348Z,25.14
2017-08-03T21:25:08.812Z,25.18
2017-08-03T21:27:36.281Z,25.22
2017-08-03T21:30:03.887Z,25.17
2017-08-03T21:32:31.329Z,25.10
2017-08-03T21:34:58.773Z,25.17
2017-08-03T21:37:26.601Z,25.01
2017-08-03T21:39:54.044Z,24.98
2017-08-03T21:42:21.502Z,24.91
2017-08-03T21:44:48.973Z,24.81
2017-08-03T21:47:16.422Z,24.73
2017-08-03T21:49:43.899Z,24.72
2017-08-03T21:52:11.374Z,24.70
2017-08-03T21:54:38.843Z,24.74
2017-08-03T21:57:06.286Z,24.89
2017-08-03T21:59:33.761Z,24.75
2017-08-03T22:02:01.264Z,24.70
2017-08-03T22:04:28.935Z,24.55
2017-08-03T22:06:56.377Z,24.59
2017-08-03T22:09:23.832Z,24.60
2017-08-03T22:11:51.297Z,24.43
2017-08-03T22:14:18.751Z,24.50
2017-08-03T22:16:46.426Z,24.53
2017-08-03T22:19:13.876Z,24.54
2017-08-03T22:21:41.326Z,24.59
2017-08-03T22:24:08.790Z,24.48
2017-08-03T22:26:36.263Z,24.43
2017-08-03T22:29:03.719Z,24.44
2017-08-03T22:31:31.218Z,24.32
2017-08-03T22:33:58.672Z,24.41
2017-08-03T22:36:26.152Z,24.47
2017-08-03T22:38:53.598Z,24.45
2017-08-03T22:41:21.043Z,24.58
2017-08-03T22:43:48.510Z,24.50
2017-08-03T22:46:15.986Z,24.41
2017-08-03T22:48:43.544Z,24.40
2017-08-03T22:51:11.362Z,24.51
2017-08-03T22:53:38.817Z,24.55
2017-08-03T22:56:06.322Z,24.54
2017-08-03T22:58:33.783Z,24.41
2017-08-03T23:01:01.240Z,24.46
2017-08-03T23:03:28.716Z,24.44
2017-08-03T23:05:56.189Z,24.40
2017-08-03T23:08:23.659Z,24.43
2017-08-03T23:10:51.126Z,24.26
2017-08-03T23:13:18.601Z,24.18
2017-08-03T23:15:46.044Z,24.22
2017-08-03T23:18:13.510Z,24.24
2017-08-03T23:20:40.969Z,24.34
2017-08-03T23:23:08.437Z,24.32
2017-08-03T23:25:35.908Z,24.29
2017-08-03T23:28:03.360Z,24.09
2017-08-03T23:30:30.826Z,24.03
2017-08-03T23:32:58.274Z,23.87
2017-08-03T23:35:25.869Z,23.96
2017-08-03T23:37:53.316Z,24.02
2017-08-03T23:40:20.758Z,23.98
2017-08-03T23:42:48.432Z,23.89
2017-08-03T23:45:15.878Z,24.07
2017-08-03T23:47:43.327Z,23.99
2017-08-03T23:50:10.794Z,24.12
2017-08-03T23:52:38.245Z,24.00
2017-08-03T23:55:05.706Z,23.82
2017-08-03T23:57:33.154Z,24.07
